createdAt,value
2023-01-29T00:02:44.372Z,5.90
2023-01-29T00:05:30.308Z,5.95
2023-01-29T00:08:16.230Z,5.13
2023-01-29T00:11:06.614Z,5.75
2023-01-29T00:13:53.126Z,6.05
2023-01-29T00:16:39.266Z,5.88
2023-01-29T00:19:25.650Z,5.90
2023-01-29T00:22:11.701Z,5.43
2023-01-29T00:24:57.758Z,5.15
2023-01-29T00:27:44.636Z,5.93
2023-01-29T00:30:30.658Z,5.35
2023-01-29T00:33:16.570Z,5.18
2023-01-29T00:36:07.847Z,5.32
2023-01-29T00:38:58.941Z,6.00
2023-01-29T00:42:03.904Z,5.28
2023-01-29T00:44:58.819Z,5.57
2023-01-29T00:47:45.598Z,5.80
2023-01-29T00:50:32.031Z,5.40
2023-01-29T00:53:17.974Z,5.32
2023-01-29T00:56:04.101Z,6.22
2023-01-29T00:58:50.165Z,5.60
2023-01-29T01:01:54.660Z,4.80
2023-01-29T01:07:27.004Z,4.78
2023-01-29T01:10:22.875Z,4.75
2023-01-29T01:13:09.110Z,5.53
2023-01-29T01:15:55.576Z,5.07
2023-01-29T01:18:42.347Z,5.35
2023-01-29T01:21:28.605Z,4.50
2023-01-29T01:24:15.098Z,4.72
2023-01-29T01:27:01.046Z,4.72
2023-01-29T01:29:47.336Z,4.35
2023-01-29T01:32:33.518Z,3.88
2023-01-29T01:35:19.649Z,4.75
2023-01-29T01:38:05.659Z,4.40
2023-01-29T01:40:51.569Z,4.18
2023-01-29T01:43:57.871Z,4.05
2023-01-29T01:46:44.053Z,4.07
2023-01-29T01:49:30.193Z,4.13
2023-01-29T01:52:19.241Z,4.32
2023-01-29T01:55:06.716Z,3.53
2023-01-29T01:58:00.252Z,4.00
2023-01-29T02:00:46.530Z,4.10
2023-01-29T02:03:55.502Z,4.22
2023-01-29T02:07:00.185Z,3.80
2023-01-29T02:09:54.706Z,3.92
2023-01-29T02:12:41.030Z,4.20
2023-01-29T02:15:27.010Z,4.20
2023-01-29T02:18:17.807Z,4.50
2023-01-29T02:21:32.068Z,4.68
2023-01-29T02:24:30.640Z,4.70
2023-01-29T02:27:24.486Z,4.45
2023-01-29T02:30:33.373Z,4.43
2023-01-29T02:33:25.803Z,4.35
2023-01-29T02:36:52.541Z,4.63
2023-01-29T02:39:49.011Z,4.97
2023-01-29T02:43:03.141Z,4.53
2023-01-29T02:46:05.240Z,4.13
2023-01-29T02:49:01.271Z,3.95
2023-01-29T02:51:52.473Z,4.03
2023-01-29T02:54:48.234Z,4.05
2023-01-29T02:57:41.468Z,4.63
2023-01-29T03:03:44.641Z,4.13
2023-01-29T03:06:36.023Z,3.80
2023-01-29T03:09:33.821Z,4.40
2023-01-29T03:12:34.398Z,5.57
2023-01-29T03:15:29.410Z,4.10
2023-01-29T03:18:43.747Z,4.32
2023-01-29T03:22:01.172Z,4.40
2023-01-29T03:25:15.392Z,4.10
2023-01-29T03:28:25.405Z,4.57
2023-01-29T03:31:32.426Z,3.55
2023-01-29T03:34:34.647Z,4.05
2023-01-29T03:37:43.519Z,3.95
2023-01-29T03:40:37.738Z,3.92
2023-01-29T03:43:54.607Z,3.92
2023-01-29T03:46:59.236Z,3.55
2023-01-29T03:50:03.296Z,3.85
2023-01-29T03:52:59.563Z,4.28
2023-01-29T03:56:02.200Z,4.75
2023-01-29T03:59:24.682Z,4.35
2023-01-29T04:02:46.131Z,3.97
2023-01-29T04:05:44.012Z,3.53
2023-01-29T04:09:04.425Z,3.90
2023-01-29T04:12:02.358Z,4.53
2023-01-29T04:14:51.493Z,4.30
2023-01-29T04:17:42.635Z,4.28
2023-01-29T04:20:35.708Z,3.60
2023-01-29T04:23:25.166Z,3.80
2023-01-29T04:26:30.277Z,3.95
2023-01-29T04:29:24.331Z,4.30
2023-01-29T04:32:27.284Z,4.18
2023-01-29T04:35:44.285Z,4.70
2023-01-29T04:38:33.287Z,4.55
2023-01-29T04:41:32.985Z,4.15
2023-01-29T04:44:24.536Z,4.05
2023-01-29T04:47:52.541Z,4.00
2023-01-29T04:50:44.358Z,4.05
2023-01-29T04:53:48.400Z,4.07
2023-01-29T04:56:53.317Z,4.45
2023-01-29T04:59:45.045Z,3.47
2023-01-29T05:02:33.477Z,4.55
2023-01-29T05:05:20.646Z,4.30
2023-01-29T05:08:08.195Z,4.50
2023-01-29T05:10:56.925Z,4.45
2023-01-29T05:13:43.508Z,4.78
2023-01-29T05:16:41.920Z,4.43
2023-01-29T05:19:27.998Z,5.00
2023-01-29T05:22:17.644Z,4.43
2023-01-29T05:25:04.001Z,4.05
2023-01-29T05:28:08.386Z,3.90
2023-01-29T05:30:56.807Z,4.60
2023-01-29T05:33:42.802Z,4.25
2023-01-29T05:36:29.225Z,4.28
2023-01-29T05:39:15.165Z,4.57
2023-01-29T05:42:01.057Z,4.43
2023-01-29T05:44:46.900Z,4.25
2023-01-29T05:47:32.786Z,4.95
2023-01-29T05:50:19.121Z,4.28
2023-01-29T05:53:06.405Z,5.00
2023-01-29T05:55:52.532Z,4.43
2023-01-29T05:58:38.839Z,4.30
2023-01-29T06:01:26.404Z,4.32
2023-01-29T06:04:12.384Z,4.20
2023-01-29T06:06:58.577Z,4.28
2023-01-29T06:09:44.717Z,4.50
2023-01-29T06:12:30.822Z,5.32
2023-01-29T06:15:17.239Z,4.70
2023-01-29T06:18:03.540Z,4.22
2023-01-29T06:20:49.603Z,4.65
2023-01-29T06:23:35.826Z,4.70
2023-01-29T06:26:22.178Z,4.43
2023-01-29T06:29:08.107Z,4.40
2023-01-29T06:31:54.328Z,4.22
2023-01-29T06:34:40.603Z,4.50
2023-01-29T06:37:26.517Z,4.68
2023-01-29T06:40:13.065Z,5.07
2023-01-29T06:43:01.439Z,4.68
2023-01-29T06:45:48.652Z,9.65
2023-01-29T06:48:35.783Z,4.93
2023-01-29T06:51:22.996Z,4.97
2023-01-29T06:54:10.311Z,4.13
2023-01-29T06:56:56.558Z,4.25
2023-01-29T06:59:42.621Z,4.30
2023-01-29T07:02:28.837Z,4.78
2023-01-29T07:05:14.697Z,4.80
2023-01-29T07:08:00.548Z,3.85
2023-01-29T07:10:46.399Z,4.32
2023-01-29T07:13:32.784Z,4.32
2023-01-29T07:16:19.296Z,4.47
2023-01-29T07:19:05.687Z,4.07
2023-01-29T07:21:51.669Z,4.85
2023-01-29T07:24:37.546Z,4.32
2023-01-29T07:27:23.945Z,4.10
2023-01-29T07:30:10.587Z,4.30
2023-01-29T07:33:07.359Z,4.07
2023-01-29T07:35:54.036Z,5.00
2023-01-29T07:38:40.134Z,4.90
2023-01-29T07:41:26.200Z,4.35
2023-01-29T07:44:12.178Z,4.00
2023-01-29T07:46:58.089Z,4.30
2023-01-29T07:49:44.022Z,4.40
2023-01-29T07:52:31.092Z,4.47
2023-01-29T07:55:17.715Z,4.18
2023-01-29T07:58:04.334Z,4.63
2023-01-29T08:00:50.197Z,4.45
2023-01-29T08:03:36.072Z,4.30
2023-01-29T08:06:21.988Z,4.53
2023-01-29T08:09:08.818Z,5.05
2023-01-29T08:11:54.827Z,4.53
2023-01-29T08:14:40.758Z,5.18
2023-01-29T08:17:26.613Z,5.00
2023-01-29T08:20:12.715Z,4.78
2023-01-29T08:23:04.473Z,4.88
2023-01-29T08:25:50.536Z,5.05
2023-01-29T08:28:38.676Z,4.32
2023-01-29T08:31:25.057Z,4.68
2023-01-29T08:34:10.849Z,4.43
2023-01-29T08:36:56.793Z,4.53
2023-01-29T08:42:33.802Z,4.93
2023-01-29T08:45:19.661Z,4.80
2023-01-29T08:48:05.954Z,4.25
2023-01-29T08:50:52.102Z,4.47
2023-01-29T08:53:38.200Z,4.40
2023-01-29T08:56:24.443Z,4.07
2023-01-29T08:59:11.032Z,3.95
2023-01-29T09:01:56.858Z,3.90
2023-01-29T09:04:42.844Z,4.20
2023-01-29T09:07:29.587Z,4.50
2023-01-29T09:10:16.370Z,4.35
2023-01-29T09:13:02.430Z,4.63
2023-01-29T09:15:48.243Z,4.35
2023-01-29T09:18:34.212Z,4.78
2023-01-29T09:21:20.135Z,4.00
2023-01-29T09:24:06.444Z,3.80
2023-01-29T09:26:52.704Z,4.93
2023-01-29T09:29:38.649Z,4.47
2023-01-29T09:32:52.119Z,4.78
2023-01-29T09:35:31.803Z,4.65
2023-01-29T09:38:18.111Z,4.43
2023-01-29T09:41:33.274Z,4.38
2023-01-29T09:44:40.995Z,4.82
2023-01-29T09:47:28.630Z,4.22
2023-01-29T09:50:26.681Z,4.53
2023-01-29T09:53:22.043Z,4.30
2023-01-29T09:56:20.247Z,4.30
2023-01-29T09:59:06.201Z,3.72
2023-01-29T10:02:18.404Z,4.30
2023-01-29T10:05:34.679Z,4.38
2023-01-29T10:08:20.879Z,4.50
2023-01-29T10:11:25.227Z,4.53
2023-01-29T10:14:52.470Z,4.60
2023-01-29T10:18:11.485Z,4.43
2023-01-29T10:21:35.262Z,4.18
2023-01-29T10:24:35.847Z,3.92
2023-01-29T10:27:22.775Z,4.63
2023-01-29T10:30:21.516Z,4.00
2023-01-29T10:33:22.006Z,4.93
2023-01-29T10:36:17.534Z,5.55
2023-01-29T10:39:04.051Z,4.93
2023-01-29T10:42:25.672Z,4.72
2023-01-29T10:45:27.299Z,3.95
2023-01-29T10:48:35.393Z,4.30
2023-01-29T10:51:43.852Z,3.67
2023-01-29T10:54:36.262Z,4.10
2023-01-29T10:57:50.327Z,3.50
2023-01-29T11:00:39.951Z,3.65
2023-01-29T11:03:31.331Z,4.03
2023-01-29T11:06:31.690Z,4.35
2023-01-29T11:12:30.857Z,5.18
2023-01-29T11:15:24.636Z,3.80
2023-01-29T11:18:16.022Z,3.80
2023-01-29T11:21:04.042Z,3.60
2023-01-29T11:23:51.416Z,3.88
2023-01-29T11:26:42.422Z,3.97
2023-01-29T11:29:34.684Z,4.18
2023-01-29T11:32:30.241Z,3.88
2023-01-29T11:35:16.117Z,4.25
2023-01-29T11:38:18.440Z,4.60
2023-01-29T11:41:18.509Z,3.92
2023-01-29T11:44:18.731Z,4.15
2023-01-29T11:47:29.874Z,4.10
2023-01-29T11:50:24.379Z,3.45
2023-01-29T11:53:27.133Z,3.45
2023-01-29T11:56:24.240Z,4.80
2023-01-29T11:59:30.123Z,4.30
2023-01-29T12:02:34.154Z,4.25
2023-01-29T12:05:24.437Z,4.50
2023-01-29T12:08:18.308Z,4.40
2023-01-29T12:11:23.612Z,3.75
2023-01-29T12:14:23.998Z,4.13
2023-01-29T12:17:19.690Z,4.45
2023-01-29T12:20:15.541Z,4.53
2023-01-29T12:23:24.726Z,4.32
2023-01-29T12:26:18.036Z,5.57
2023-01-29T12:29:25.603Z,4.53
2023-01-29T12:32:23.876Z,4.75
2023-01-29T12:35:18.241Z,5.15
2023-01-29T12:38:10.194Z,4.60
2023-01-29T12:41:36.568Z,4.45
2023-01-29T12:44:45.796Z,4.88
2023-01-29T12:48:08.726Z,4.47
2023-01-29T12:50:57.581Z,5.30
2023-01-29T12:53:59.757Z,4.32
2023-01-29T12:56:52.846Z,4.38
2023-01-29T13:02:38.604Z,5.22
2023-01-29T13:05:33.778Z,5.05
2023-01-29T13:08:26.682Z,4.95
2023-01-29T13:11:26.783Z,4.88
2023-01-29T13:14:17.240Z,4.88
2023-01-29T13:17:27.478Z,4.85
2023-01-29T13:20:22.926Z,4.68
2023-01-29T13:23:38.144Z,4.80
2023-01-29T13:26:26.543Z,5.82
2023-01-29T13:29:26.167Z,5.03
2023-01-29T13:32:20.196Z,4.32
2023-01-29T13:35:14.994Z,5.18
2023-01-29T13:38:03.850Z,5.75
2023-01-29T13:40:51.265Z,5.30
2023-01-29T13:43:41.906Z,4.80
2023-01-29T13:46:29.925Z,5.55
2023-01-29T13:49:37.544Z,5.43
2023-01-29T13:52:32.577Z,5.10
2023-01-29T13:55:19.120Z,4.88
2023-01-29T13:58:07.043Z,5.57
2023-01-29T14:00:53.341Z,5.63
2023-01-29T14:04:04.301Z,4.55
2023-01-29T14:07:03.409Z,5.18
2023-01-29T14:09:49.392Z,5.63
2023-01-29T14:12:39.687Z,6.40
2023-01-29T14:15:29.336Z,4.97
2023-01-29T14:18:25.268Z,4.93
2023-01-29T14:21:14.247Z,5.35
2023-01-29T14:24:17.624Z,5.10
2023-01-29T14:27:03.668Z,4.88
2023-01-29T14:29:51.915Z,5.18
2023-01-29T14:32:40.526Z,5.05
2023-01-29T14:35:30.612Z,4.93
2023-01-29T14:38:16.810Z,5.15
2023-01-29T14:41:21.794Z,5.07
2023-01-29T14:44:45.544Z,4.68
2023-01-29T14:47:34.647Z,4.97
2023-01-29T14:50:32.399Z,4.72
2023-01-29T14:53:33.660Z,5.25
2023-01-29T14:56:35.062Z,4.97
2023-01-29T14:59:26.971Z,6.13
2023-01-29T15:02:18.745Z,5.13
2023-01-29T15:05:10.771Z,4.85
2023-01-29T15:08:03.192Z,5.13
2023-01-29T15:11:13.959Z,4.75
2023-01-29T15:14:15.115Z,4.95
2023-01-29T15:17:05.214Z,5.43
2023-01-29T15:19:51.146Z,5.63
2023-01-29T15:22:43.376Z,5.50
2023-01-29T15:25:48.395Z,5.15
2023-01-29T15:28:35.964Z,5.57
2023-01-29T15:31:22.104Z,4.88
2023-01-29T15:34:08.137Z,5.13
2023-01-29T15:36:54.180Z,5.15
2023-01-29T15:39:43.826Z,5.30
2023-01-29T15:42:44.624Z,4.78
2023-01-29T15:45:35.052Z,5.38
2023-01-29T15:48:32.945Z,5.43
2023-01-29T15:51:23.954Z,5.10
2023-01-29T15:54:15.882Z,5.72
2023-01-29T15:57:03.547Z,5.45
2023-01-29T15:59:52.014Z,6.13
2023-01-29T16:02:42.849Z,5.38
2023-01-29T16:05:30.653Z,5.07
2023-01-29T16:08:18.510Z,5.50
2023-01-29T16:11:06.325Z,4.93
2023-01-29T16:13:53.379Z,5.75
2023-01-29T16:16:39.510Z,4.88
2023-01-29T16:19:27.696Z,5.13
2023-01-29T16:22:16.110Z,5.20
2023-01-29T16:25:08.028Z,5.05
2023-01-29T16:27:54.327Z,5.38
2023-01-29T16:30:40.422Z,4.68
2023-01-29T16:33:36.553Z,4.88
2023-01-29T16:36:25.325Z,5.40
2023-01-29T16:39:29.193Z,5.05
2023-01-29T16:42:19.988Z,6.05
2023-01-29T16:45:27.370Z,5.93
2023-01-29T16:48:30.527Z,5.72
2023-01-29T16:51:29.201Z,5.90
2023-01-29T16:54:18.199Z,5.53
2023-01-29T16:57:04.034Z,5.28
2023-01-29T16:59:57.078Z,5.07
2023-01-29T17:02:42.959Z,5.80
2023-01-29T17:05:31.635Z,5.50
2023-01-29T17:08:32.384Z,5.75
2023-01-29T17:11:36.287Z,5.60
2023-01-29T17:14:25.643Z,5.43
2023-01-29T17:17:16.186Z,5.25
2023-01-29T17:20:14.241Z,6.00
2023-01-29T17:23:00.210Z,5.05
2023-01-29T17:25:47.373Z,5.28
2023-01-29T17:28:34.077Z,5.82
2023-01-29T17:31:20.321Z,5.15
2023-01-29T17:34:12.719Z,5.18
2023-01-29T17:36:58.868Z,5.03
2023-01-29T17:39:47.421Z,5.55
2023-01-29T17:42:33.330Z,5.10
2023-01-29T17:45:19.856Z,5.38
2023-01-29T17:48:30.245Z,5.72
2023-01-29T17:51:17.816Z,5.15
2023-01-29T17:54:04.086Z,5.25
2023-01-29T17:56:51.396Z,5.07
2023-01-29T17:59:37.760Z,5.32
2023-01-29T18:02:29.445Z,5.60
2023-01-29T18:05:17.456Z,4.68
2023-01-29T18:08:04.744Z,5.75
2023-01-29T18:10:50.927Z,4.70
2023-01-29T18:13:37.191Z,4.40
2023-01-29T18:16:24.278Z,4.88
2023-01-29T18:19:23.096Z,5.38
2023-01-29T18:22:09.175Z,5.25
2023-01-29T18:24:55.656Z,6.07
2023-01-29T18:27:41.990Z,5.10
2023-01-29T18:30:28.004Z,5.70
2023-01-29T18:33:15.310Z,6.15
2023-01-29T18:36:01.438Z,5.53
2023-01-29T18:38:47.638Z,6.68
2023-01-29T18:41:33.947Z,5.93
2023-01-29T18:44:19.941Z,5.63
2023-01-29T18:47:06.014Z,5.90
2023-01-29T18:49:52.169Z,5.65
2023-01-29T18:52:38.623Z,6.13
2023-01-29T18:55:26.506Z,5.65
2023-01-29T18:58:26.897Z,5.78
2023-01-29T19:01:15.846Z,5.43
2023-01-29T19:04:01.858Z,6.47
2023-01-29T19:06:48.092Z,5.38
2023-01-29T19:09:34.137Z,6.05
2023-01-29T19:12:20.147Z,6.47
2023-01-29T19:15:07.570Z,5.72
2023-01-29T19:17:54.401Z,6.30
2023-01-29T19:20:42.115Z,6.07
2023-01-29T19:23:28.432Z,6.07
2023-01-29T19:26:14.799Z,6.18
2023-01-29T19:29:01.567Z,5.93
2023-01-29T19:34:34.330Z,5.40
2023-01-29T19:37:20.674Z,5.13
2023-01-29T19:40:08.255Z,5.75
2023-01-29T19:42:56.023Z,6.15
2023-01-29T19:45:50.448Z,5.72
2023-01-29T19:48:36.888Z,6.10
2023-01-29T19:51:23.441Z,5.78
2023-01-29T19:54:09.561Z,5.68
2023-01-29T19:56:55.890Z,5.70
2023-01-29T19:59:45.625Z,5.72
2023-01-29T20:02:32.459Z,6.95
2023-01-29T20:05:20.290Z,6.43
2023-01-29T20:08:06.472Z,12.75
2023-01-29T20:10:52.528Z,6.57
2023-01-29T20:13:38.478Z,6.38
2023-01-29T20:16:25.650Z,6.18
2023-01-29T20:22:01.267Z,5.80
2023-01-29T20:24:47.207Z,6.50
2023-01-29T20:27:33.329Z,6.57
2023-01-29T20:30:19.706Z,5.72
2023-01-29T20:33:06.946Z,5.38
2023-01-29T20:35:57.584Z,6.68
2023-01-29T20:38:44.155Z,6.85
2023-01-29T20:41:30.228Z,6.05
2023-01-29T20:44:16.359Z,5.25
2023-01-29T20:47:03.992Z,6.07
2023-01-29T20:49:50.397Z,5.93
2023-01-29T20:52:36.725Z,5.43
2023-01-29T20:55:23.288Z,5.90
2023-01-29T20:58:10.015Z,5.90
2023-01-29T21:00:56.439Z,5.60
2023-01-29T21:03:42.846Z,6.10
2023-01-29T21:06:29.582Z,5.93
2023-01-29T21:09:15.389Z,6.38
2023-01-29T21:12:01.591Z,5.63
2023-01-29T21:14:47.382Z,4.97
2023-01-29T21:17:33.406Z,6.10
2023-01-29T21:20:19.384Z,6.22
2023-01-29T21:23:07.149Z,5.28
2023-01-29T21:25:53.253Z,5.55
2023-01-29T21:28:39.206Z,6.50
2023-01-29T21:31:25.316Z,7.38
2023-01-29T21:34:11.322Z,6.28
2023-01-29T21:36:57.440Z,7.97
2023-01-29T21:39:43.473Z,5.97
2023-01-29T21:42:48.153Z,6.22
2023-01-29T21:45:35.675Z,6.82
2023-01-29T21:48:21.938Z,6.35
2023-01-29T21:51:08.321Z,6.45
2023-01-29T21:53:54.459Z,6.72
2023-01-29T21:56:40.807Z,6.38
2023-01-29T21:59:26.772Z,6.68
2023-01-29T22:02:15.960Z,7.10
2023-01-29T22:05:17.498Z,7.32
2023-01-29T22:08:04.851Z,5.50
2023-01-29T22:10:50.793Z,6.10
2023-01-29T22:13:36.797Z,5.85
2023-01-29T22:16:22.855Z,6.35
2023-01-29T22:19:08.936Z,6.18
2023-01-29T22:21:55.598Z,7.38
2023-01-29T22:24:44.702Z,6.00
2023-01-29T22:27:33.637Z,6.32
2023-01-29T22:30:20.702Z,5.65
2023-01-29T22:33:07.792Z,6.40
2023-01-29T22:35:54.535Z,7.35
2023-01-29T22:38:42.999Z,7.05
2023-01-29T22:41:29.187Z,6.57
2023-01-29T22:44:15.177Z,6.35
2023-01-29T22:47:01.891Z,7.15
2023-01-29T22:49:50.072Z,5.57
2023-01-29T22:52:39.326Z,6.57
2023-01-29T22:55:25.693Z,7.03
2023-01-29T22:58:11.646Z,6.35
2023-01-29T23:00:58.003Z,6.25
2023-01-29T23:03:44.309Z,6.82
2023-01-29T23:06:30.182Z,6.68
2023-01-29T23:09:16.074Z,6.88
2023-01-29T23:12:01.998Z,6.60
2023-01-29T23:14:47.901Z,6.82
2023-01-29T23:17:34.199Z,6.72
2023-01-29T23:20:21.682Z,5.80
2023-01-29T23:26:19.473Z,5.55
2023-01-29T23:29:05.858Z,7.68
2023-01-29T23:31:51.833Z,6.20
2023-01-29T23:34:37.818Z,6.43
2023-01-29T23:37:23.998Z,6.00
2023-01-29T23:40:10.910Z,6.65
2023-01-29T23:42:56.953Z,6.13
2023-01-29T23:45:42.979Z,5.88
2023-01-29T23:48:29.522Z,6.32
2023-01-29T23:51:16.725Z,7.13
2023-01-29T23:54:02.763Z,6.55
2023-01-29T23:56:48.970Z,6.13
2023-01-29T23:59:34.927Z,6.72
